createdAt,value
2022-08-11T00:00:40.390Z,1018.3
2022-08-11T00:01:43.332Z,1018.3
2022-08-11T00:02:45.428Z,1018.3
2022-08-11T00:03:48.936Z,1018.3
2022-08-11T00:04:51.846Z,1018.3
2022-08-11T00:05:56.241Z,1018.3
2022-08-11T00:06:59.377Z,1018.3
2022-08-11T00:08:02.889Z,1018.3
2022-08-11T00:09:05.594Z,1018.3
2022-08-11T00:10:08.503Z,1018.3
2022-08-11T00:11:10.848Z,1018.3
2022-08-11T00:12:13.494Z,1018.3
2022-08-11T00:13:17.492Z,1018.3
2022-08-11T00:14:20.469Z,1018.3
2022-08-11T00:15:23.598Z,1018.3
2022-08-11T00:16:26.451Z,1018.3
2022-08-11T00:17:29.647Z,1018.3
2022-08-11T00:18:32.064Z,1018.3
2022-08-11T00:20:16.482Z,1018.3
2022-08-11T00:22:03.268Z,1018.2
2022-08-11T00:23:09.486Z,1018.2
2022-08-11T00:24:12.896Z,1018.2
2022-08-11T00:25:15.244Z,1018.2
2022-08-11T00:26:17.540Z,1018.2
2022-08-11T00:27:20.234Z,1018.2
2022-08-11T00:28:27.453Z,1018.3
2022-08-11T00:29:30.079Z,1018.3
2022-08-11T00:30:32.783Z,1018.3
2022-08-11T00:31:35.359Z,1018.2
2022-08-11T00:32:39.203Z,1018.2
2022-08-11T00:33:45.640Z,1018.3
2022-08-11T00:34:48.566Z,1018.3
2022-08-11T00:35:58.166Z,1018.2
2022-08-11T00:37:00.721Z,1018.2
2022-08-11T00:38:03.574Z,1018.3
2022-08-11T00:39:06.276Z,1018.3
2022-08-11T00:40:09.963Z,1018.3
2022-08-11T00:41:12.919Z,1018.3
2022-08-11T00:42:15.827Z,1018.3
2022-08-11T00:43:21.089Z,1018.3
2022-08-11T00:44:24.172Z,1018.3
2022-08-11T00:45:26.482Z,1018.3
2022-08-11T00:46:28.629Z,1018.3
2022-08-11T00:47:31.268Z,1018.3
2022-08-11T00:48:33.906Z,1018.3
2022-08-11T00:49:37.164Z,1018.3
2022-08-11T00:50:40.081Z,1018.3
2022-08-11T00:52:06.450Z,1018.3
2022-08-11T00:53:09.637Z,1018.3
2022-08-11T00:54:12.778Z,1018.3
2022-08-11T00:55:15.702Z,1018.2
2022-08-11T00:56:18.610Z,1018.3
2022-08-11T00:57:38.751Z,1018.3
2022-08-11T00:58:44.314Z,1018.3
2022-08-11T00:59:53.660Z,1018.3
2022-08-11T01:00:56.558Z,1018.3
2022-08-11T01:02:00.159Z,1018.3
2022-08-11T01:03:03.626Z,1018.3
2022-08-11T01:04:06.049Z,1018.3
2022-08-11T01:05:09.502Z,1018.3
2022-08-11T01:06:11.962Z,1018.3
2022-08-11T01:08:03.587Z,1018.3
2022-08-11T01:09:06.230Z,1018.3
2022-08-11T01:10:09.143Z,1018.3
2022-08-11T01:11:11.495Z,1018.3
2022-08-11T01:12:14.123Z,1018.3
2022-08-11T01:13:16.695Z,1018.3
2022-08-11T01:14:34.795Z,1018.3
2022-08-11T01:15:37.993Z,1018.3
2022-08-11T01:16:41.470Z,1018.3
2022-08-11T01:17:44.154Z,1018.3
2022-08-11T01:18:47.330Z,1018.3
2022-08-11T01:20:49.528Z,1018.3
2022-08-11T01:21:52.211Z,1018.3
2022-08-11T01:22:59.034Z,1018.3
2022-08-11T01:24:02.160Z,1018.3
2022-08-11T01:25:04.530Z,1018.4
2022-08-11T01:26:07.448Z,1018.4
2022-08-11T01:27:20.163Z,1018.4
2022-08-11T01:28:23.129Z,1018.4
2022-08-11T01:29:25.955Z,1018.4
2022-08-11T01:30:28.852Z,1018.4
2022-08-11T01:31:31.261Z,1018.4
2022-08-11T01:32:33.718Z,1018.4
2022-08-11T01:33:37.116Z,1018.4
2022-08-11T01:34:39.513Z,1018.4
2022-08-11T01:35:42.409Z,1018.4
2022-08-11T01:36:57.027Z,1018.4
2022-08-11T01:37:59.491Z,1018.4
2022-08-11T01:39:01.552Z,1018.4
2022-08-11T01:40:04.956Z,1018.4
2022-08-11T01:41:07.304Z,1018.4
2022-08-11T01:42:09.659Z,1018.4
2022-08-11T01:43:12.009Z,1018.4
2022-08-11T01:44:14.918Z,1018.4
2022-08-11T01:45:17.694Z,1018.4
2022-08-11T01:46:20.634Z,1018.4
2022-08-11T01:47:25.105Z,1018.4
2022-08-11T01:48:27.710Z,1018.5
2022-08-11T01:50:10.736Z,1018.5
2022-08-11T01:51:17.729Z,1018.5
2022-08-11T01:52:34.896Z,1018.5
2022-08-11T01:53:40.629Z,1018.4
2022-08-11T01:54:43.319Z,1018.5
2022-08-11T01:55:46.490Z,1018.5
2022-08-11T01:56:49.653Z,1018.5
2022-08-11T01:57:52.060Z,1018.5
2022-08-11T01:58:54.633Z,1018.5
2022-08-11T01:59:57.534Z,1018.4
2022-08-11T02:01:01.296Z,1018.5
2022-08-11T02:02:04.801Z,1018.5
2022-08-11T02:03:07.709Z,1018.4
2022-08-11T02:04:09.952Z,1018.5
2022-08-11T02:05:12.398Z,1018.4
2022-08-11T02:06:15.018Z,1018.4
2022-08-11T02:07:18.148Z,1018.4
2022-08-11T02:08:33.845Z,1018.4
2022-08-11T02:09:52.488Z,1018.4
2022-08-11T02:10:56.578Z,1018.4
2022-08-11T02:12:03.048Z,1018.4
2022-08-11T02:13:07.996Z,1018.3
2022-08-11T02:14:13.912Z,1018.4
2022-08-11T02:15:16.826Z,1018.4
2022-08-11T02:16:19.738Z,1018.4
2022-08-11T02:17:22.079Z,1018.3
2022-08-11T02:18:24.149Z,1018.4
2022-08-11T02:19:26.779Z,1018.3
2022-08-11T02:20:29.198Z,1018.3
2022-08-11T02:21:31.979Z,1018.4
2022-08-11T02:22:34.900Z,1018.3
2022-08-11T02:24:07.977Z,1018.4
2022-08-11T02:25:11.013Z,1018.4
2022-08-11T02:26:19.578Z,1018.4
2022-08-11T02:27:22.439Z,1018.4
2022-08-11T02:28:25.139Z,1018.4
2022-08-11T02:29:28.274Z,1018.3
2022-08-11T02:30:30.066Z,1018.4
2022-08-11T02:32:30.056Z,1018.4
2022-08-11T02:33:37.006Z,1018.4
2022-08-11T02:34:39.292Z,1018.4
2022-08-11T02:35:41.657Z,1018.4
2022-08-11T02:36:44.238Z,1018.3
2022-08-11T02:37:46.637Z,1018.4
2022-08-11T02:38:49.486Z,1018.3
2022-08-11T02:39:52.633Z,1018.3
2022-08-11T02:40:55.843Z,1018.3
2022-08-11T02:41:58.737Z,1018.2
2022-08-11T02:43:00.973Z,1018.3
2022-08-11T02:44:03.817Z,1018.3
2022-08-11T02:45:06.158Z,1018.2
2022-08-11T02:46:18.713Z,1018.2
2022-08-11T02:47:23.761Z,1018.3
2022-08-11T02:48:31.079Z,1018.2
2022-08-11T02:49:33.642Z,1018.2
2022-08-11T02:50:36.497Z,1018.3
2022-08-11T02:51:39.183Z,1018.2
2022-08-11T02:52:41.815Z,1018.2
2022-08-11T02:53:58.186Z,1018.2
2022-08-11T02:55:01.613Z,1018.2
2022-08-11T02:56:04.264Z,1018.2
2022-08-11T02:57:12.111Z,1018.2
2022-08-11T02:58:15.947Z,1018.2
2022-08-11T02:59:29.954Z,1018.2
2022-08-11T03:00:32.344Z,1018.2
2022-08-11T03:01:35.091Z,1018.2
2022-08-11T03:02:38.020Z,1018.2
2022-08-11T03:03:41.873Z,1018.2
2022-08-11T03:04:45.345Z,1018.2
2022-08-11T03:05:50.460Z,1018.2
2022-08-11T03:06:56.018Z,1018.2
2022-08-11T03:07:59.192Z,1018.2
2022-08-11T03:09:01.274Z,1018.2
2022-08-11T03:10:04.787Z,1018.3
2022-08-11T03:11:07.147Z,1018.2
2022-08-11T03:12:10.057Z,1018.2
2022-08-11T03:13:15.834Z,1018.2
2022-08-11T03:14:18.125Z,1018.2
2022-08-11T03:15:21.294Z,1018.2
2022-08-11T03:16:24.198Z,1018.3
2022-08-11T03:17:26.605Z,1018.2
2022-08-11T03:18:29.726Z,1018.2
2022-08-11T03:19:31.780Z,1018.2
2022-08-11T03:20:39.243Z,1018.2
2022-08-11T03:22:06.477Z,1018.2
2022-08-11T03:23:20.804Z,1018.2
2022-08-11T03:24:23.867Z,1018.2
2022-08-11T03:25:26.141Z,1018.2
2022-08-11T03:26:28.704Z,1018.2
2022-08-11T03:27:30.756Z,1018.2
2022-08-11T03:28:33.737Z,1018.2
2022-08-11T03:29:36.310Z,1018.2
2022-08-11T03:30:40.226Z,1018.2
2022-08-11T03:31:46.515Z,1018.2
2022-08-11T03:32:49.358Z,1018.2
2022-08-11T03:33:51.772Z,1018.2
2022-08-11T03:34:54.909Z,1018.2
2022-08-11T03:35:58.094Z,1018.2
2022-08-11T03:37:18.384Z,1018.2
2022-08-11T03:38:30.968Z,1018.2
2022-08-11T03:39:33.752Z,1018.2
2022-08-11T03:40:36.686Z,1018.2
2022-08-11T03:42:06.844Z,1018.2
2022-08-11T03:43:12.436Z,1018.2
2022-08-11T03:44:15.048Z,1018.2
2022-08-11T03:45:17.409Z,1018.2
2022-08-11T03:46:22.926Z,1018.2
2022-08-11T03:47:26.176Z,1018.2
2022-08-11T03:48:29.077Z,1018.1
2022-08-11T03:49:31.986Z,1018.2
2022-08-11T03:50:34.571Z,1018.2
2022-08-11T03:51:52.425Z,1018.1
2022-08-11T03:52:55.591Z,1018.2
2022-08-11T03:53:58.496Z,1018.2
2022-08-11T03:55:02.279Z,1018.2
2022-08-11T03:56:05.159Z,1018.2
2022-08-11T03:57:08.318Z,1018.2
2022-08-11T03:58:11.282Z,1018.2
2022-08-11T03:59:14.196Z,1018.2
2022-08-11T04:00:17.391Z,1018.2
2022-08-11T04:01:19.842Z,1018.2
2022-08-11T04:02:22.449Z,1018.2
2022-08-11T04:03:31.726Z,1018.2
2022-08-11T04:04:34.949Z,1018.2
2022-08-11T04:05:38.147Z,1018.2
2022-08-11T04:06:41.053Z,1018.2
2022-08-11T04:07:43.703Z,1018.2
2022-08-11T04:08:45.999Z,1018.2
2022-08-11T04:09:49.193Z,1018.2
2022-08-11T04:10:54.934Z,1018.2
2022-08-11T04:12:02.084Z,1018.1
2022-08-11T04:13:04.775Z,1018.1
2022-08-11T04:14:07.437Z,1018.2
2022-08-11T04:15:10.597Z,1018.2
2022-08-11T04:16:13.240Z,1018.1
2022-08-11T04:17:16.155Z,1018.1
2022-08-11T04:18:19.281Z,1018.1
2022-08-11T04:19:22.242Z,1018.1
2022-08-11T04:20:24.880Z,1018.1
2022-08-11T04:21:27.518Z,1018.1
2022-08-11T04:22:29.895Z,1018.1
2022-08-11T04:24:39.689Z,1018.1
2022-08-11T04:25:58.941Z,1018.1
2022-08-11T04:27:20.979Z,1018.1
2022-08-11T04:28:31.382Z,1018.2
2022-08-11T04:30:05.678Z,1018.2
2022-08-11T04:31:52.840Z,1018.1
2022-08-11T04:32:55.939Z,1018.2
2022-08-11T04:33:58.334Z,1018.2
2022-08-11T04:35:00.963Z,1018.2
2022-08-11T04:36:03.879Z,1018.1
2022-08-11T04:37:06.580Z,1018.1
2022-08-11T04:38:09.487Z,1018.1
2022-08-11T04:39:12.507Z,1018.1
2022-08-11T04:40:15.086Z,1018.2
2022-08-11T04:41:17.695Z,1018.2
2022-08-11T04:42:20.836Z,1018.2
2022-08-11T04:43:22.933Z,1018.2
2022-08-11T04:44:25.287Z,1018.2
2022-08-11T04:45:27.800Z,1018.2
2022-08-11T04:46:30.154Z,1018.2
2022-08-11T04:48:04.526Z,1018.2
2022-08-11T04:49:07.747Z,1018.2
2022-08-11T04:50:10.663Z,1018.2
2022-08-11T04:51:17.953Z,1018.2
2022-08-11T04:52:20.890Z,1018.2
2022-08-11T04:53:23.251Z,1018.2
2022-08-11T04:54:29.287Z,1018.2
2022-08-11T04:55:36.248Z,1018.2
2022-08-11T04:56:43.628Z,1018.2
2022-08-11T04:57:46.328Z,1018.2
2022-08-11T04:58:49.168Z,1018.2
2022-08-11T04:59:52.013Z,1018.1
2022-08-11T05:00:56.963Z,1018.1
2022-08-11T05:02:00.344Z,1018.1
2022-08-11T05:03:03.585Z,1018.1
2022-08-11T05:04:06.411Z,1018.2
2022-08-11T05:05:09.318Z,1018.2
2022-08-11T05:06:12.020Z,1018.1
2022-08-11T05:07:14.656Z,1018.2
2022-08-11T05:08:24.367Z,1018.2
2022-08-11T05:09:27.268Z,1018.1
2022-08-11T05:10:30.174Z,1018.1
2022-08-11T05:11:33.150Z,1018.2
2022-08-11T05:12:35.489Z,1018.1
2022-08-11T05:13:39.127Z,1018.1
2022-08-11T05:14:42.304Z,1018.1
2022-08-11T05:15:51.715Z,1018.1
2022-08-11T05:16:54.089Z,1018.1
2022-08-11T05:17:57.001Z,1018.2
2022-08-11T05:18:59.640Z,1018.1
2022-08-11T05:20:02.374Z,1018.1
2022-08-11T05:21:05.851Z,1018.2
2022-08-11T05:22:08.963Z,1018.1
2022-08-11T05:23:13.874Z,1018.2
2022-08-11T05:24:16.498Z,1018.1
2022-08-11T05:26:49.448Z,1018.2
2022-08-11T05:27:52.965Z,1018.2
2022-08-11T05:28:55.811Z,1018.2
2022-08-11T05:29:58.189Z,1018.2
2022-08-11T05:31:01.102Z,1018.2
2022-08-11T05:32:03.942Z,1018.2
2022-08-11T05:33:06.344Z,1018.2
2022-08-11T05:34:08.966Z,1018.2
2022-08-11T05:36:03.048Z,1018.2
2022-08-11T05:37:27.628Z,1018.2
2022-08-11T05:38:30.737Z,1018.2
2022-08-11T05:39:37.159Z,1018.2
2022-08-11T05:40:40.202Z,1018.2
2022-08-11T05:42:02.534Z,1018.2
2022-08-11T05:43:05.443Z,1018.2
2022-08-11T05:44:22.573Z,1018.2
2022-08-11T05:45:25.594Z,1018.3
2022-08-11T05:47:14.591Z,1018.2
2022-08-11T05:48:17.096Z,1018.3
2022-08-11T05:49:19.674Z,1018.3
2022-08-11T05:50:33.448Z,1018.3
2022-08-11T05:51:57.059Z,1018.3
2022-08-11T05:53:22.117Z,1018.3
2022-08-11T05:54:29.749Z,1018.3
2022-08-11T05:55:32.461Z,1018.3
2022-08-11T05:56:35.380Z,1018.3
2022-08-11T05:57:52.097Z,1018.3
2022-08-11T05:58:54.730Z,1018.3
2022-08-11T05:59:56.824Z,1018.3
2022-08-11T06:00:58.956Z,1018.4
2022-08-11T06:02:02.615Z,1018.3
2022-08-11T06:03:06.977Z,1018.3
2022-08-11T06:04:09.676Z,1018.3
2022-08-11T06:05:12.580Z,1018.4
2022-08-11T06:06:15.271Z,1018.4
2022-08-11T06:07:18.112Z,1018.4
2022-08-11T06:08:21.036Z,1018.4
2022-08-11T06:09:23.895Z,1018.4
2022-08-11T06:10:26.658Z,1018.4
2022-08-11T06:11:45.029Z,1018.4
2022-08-11T06:12:47.736Z,1018.4
2022-08-11T06:13:50.372Z,1018.4
2022-08-11T06:14:53.491Z,1018.4
2022-08-11T06:15:56.126Z,1018.4
2022-08-11T06:16:58.498Z,1018.4
2022-08-11T06:18:01.439Z,1018.5
2022-08-11T06:19:04.460Z,1018.4
2022-08-11T06:20:07.994Z,1018.5
2022-08-11T06:21:10.869Z,1018.5
2022-08-11T06:22:13.748Z,1018.4
2022-08-11T06:23:16.104Z,1018.4
2022-08-11T06:24:18.729Z,1018.5
2022-08-11T06:25:20.817Z,1018.5
2022-08-11T06:26:23.669Z,1018.5
2022-08-11T06:27:26.664Z,1018.5
2022-08-11T06:28:29.597Z,1018.4
2022-08-11T06:29:48.268Z,1018.4
2022-08-11T06:30:58.730Z,1018.4
2022-08-11T06:32:01.705Z,1018.4
2022-08-11T06:33:04.648Z,1018.4
2022-08-11T06:34:07.227Z,1018.4
2022-08-11T06:35:09.607Z,1018.4
2022-08-11T06:36:12.173Z,1018.4
2022-08-11T06:37:15.081Z,1018.4
2022-08-11T06:38:17.988Z,1018.4
2022-08-11T06:39:20.886Z,1018.4
2022-08-11T06:40:24.038Z,1018.4
2022-08-11T06:41:27.153Z,1018.4
2022-08-11T06:42:30.613Z,1018.4
2022-08-11T06:43:34.021Z,1018.4
2022-08-11T06:44:36.667Z,1018.4
2022-08-11T06:45:40.016Z,1018.4
2022-08-11T06:46:42.367Z,1018.3
2022-08-11T06:47:45.294Z,1018.4
2022-08-11T06:48:48.255Z,1018.3
2022-08-11T06:49:51.350Z,1018.3
2022-08-11T06:50:53.671Z,1018.3
2022-08-11T06:52:01.601Z,1018.4
2022-08-11T06:53:06.990Z,1018.4
2022-08-11T06:54:11.291Z,1018.4
2022-08-11T06:55:59.005Z,1018.4
2022-08-11T06:57:30.810Z,1018.4
2022-08-11T06:58:34.624Z,1018.4
2022-08-11T06:59:39.034Z,1018.4
2022-08-11T07:00:44.136Z,1018.4
2022-08-11T07:01:49.555Z,1018.4
2022-08-11T07:02:53.617Z,1018.4
2022-08-11T07:03:56.245Z,1018.4
2022-08-11T07:04:59.430Z,1018.4
2022-08-11T07:06:02.060Z,1018.3
2022-08-11T07:07:05.495Z,1018.3
2022-08-11T07:08:35.881Z,1018.3
2022-08-11T07:09:39.461Z,1018.3
2022-08-11T07:10:42.855Z,1018.3
2022-08-11T07:11:45.275Z,1018.3
2022-08-11T07:12:48.941Z,1018.3
2022-08-11T07:13:51.573Z,1018.3
2022-08-11T07:15:01.260Z,1018.3
2022-08-11T07:16:14.332Z,1018.3
2022-08-11T07:17:17.475Z,1018.3
2022-08-11T07:18:20.355Z,1018.3
2022-08-11T07:19:23.339Z,1018.3
2022-08-11T07:20:26.240Z,1018.3
2022-08-11T07:22:04.048Z,1018.3
2022-08-11T07:23:07.400Z,1018.3
2022-08-11T07:24:12.803Z,1018.3
2022-08-11T07:25:15.602Z,1018.3
2022-08-11T07:26:18.503Z,1018.3
2022-08-11T07:27:21.352Z,1018.3
2022-08-11T07:28:29.740Z,1018.3
2022-08-11T07:29:32.719Z,1018.3
2022-08-11T07:30:35.645Z,1018.2
2022-08-11T07:31:39.143Z,1018.3
2022-08-11T07:32:41.153Z,1018.3
2022-08-11T07:34:12.138Z,1018.3
2022-08-11T07:35:20.880Z,1018.3
2022-08-11T07:36:28.742Z,1018.3
2022-08-11T07:37:32.059Z,1018.3
2022-08-11T07:38:35.992Z,1018.3
2022-08-11T07:39:39.911Z,1018.3
2022-08-11T07:40:42.701Z,1018.3
2022-08-11T07:41:45.592Z,1018.3
2022-08-11T07:42:48.793Z,1018.3
2022-08-11T07:43:51.732Z,1018.3
2022-08-11T07:44:54.284Z,1018.3
2022-08-11T07:45:56.646Z,1018.3
2022-08-11T07:47:01.209Z,1018.3
2022-08-11T07:48:03.832Z,1018.3
2022-08-11T07:49:06.208Z,1018.3
2022-08-11T07:50:08.721Z,1018.3
2022-08-11T07:51:11.513Z,1018.3
2022-08-11T07:52:14.695Z,1018.3
2022-08-11T07:53:17.313Z,1018.3
2022-08-11T07:54:20.663Z,1018.3
2022-08-11T07:55:53.572Z,1018.3
2022-08-11T07:57:40.025Z,1018.3
2022-08-11T08:00:05.298Z,1018.3
2022-08-11T08:01:23.022Z,1018.3
2022-08-11T08:02:29.457Z,1018.3
2022-08-11T08:03:33.469Z,1018.3
2022-08-11T08:04:36.099Z,1018.2
2022-08-11T08:05:39.005Z,1018.3
2022-08-11T08:06:41.874Z,1018.3
2022-08-11T08:07:48.125Z,1018.3
2022-08-11T08:08:58.264Z,1018.3
2022-08-11T08:10:03.776Z,1018.3
2022-08-11T08:11:06.931Z,1018.3
2022-08-11T08:12:09.330Z,1018.3
2022-08-11T08:13:11.664Z,1018.3
2022-08-11T08:14:14.836Z,1018.3
2022-08-11T08:15:17.664Z,1018.3
2022-08-11T08:16:20.621Z,1018.3
2022-08-11T08:17:22.988Z,1018.3
2022-08-11T08:18:28.088Z,1018.3
2022-08-11T08:19:32.061Z,1018.3
2022-08-11T08:20:34.755Z,1018.3
2022-08-11T08:21:37.645Z,1018.3
2022-08-11T08:22:48.432Z,1018.3
2022-08-11T08:23:56.907Z,1018.3
2022-08-11T08:24:58.973Z,1018.3
2022-08-11T08:26:00.998Z,1018.3
2022-08-11T08:27:03.006Z,1018.3
2022-08-11T08:28:06.198Z,1018.3
2022-08-11T08:29:09.110Z,1018.3
2022-08-11T08:30:12.510Z,1018.3
2022-08-11T08:31:15.138Z,1018.3
2022-08-11T08:32:17.835Z,1018.3
2022-08-11T08:33:20.746Z,1018.3
2022-08-11T08:34:23.458Z,1018.3
2022-08-11T08:35:34.688Z,1018.3
2022-08-11T08:36:58.066Z,1018.3
2022-08-11T08:38:00.689Z,1018.3
2022-08-11T08:39:03.099Z,1018.3
2022-08-11T08:40:06.006Z,1018.3
2022-08-11T08:41:16.556Z,1018.3
2022-08-11T08:42:19.630Z,1018.3
2022-08-11T08:43:22.821Z,1018.2
2022-08-11T08:44:41.335Z,1018.3
2022-08-11T08:45:47.793Z,1018.3
2022-08-11T08:46:50.431Z,1018.3
2022-08-11T08:47:54.066Z,1018.2
2022-08-11T08:48:57.016Z,1018.3
2022-08-11T08:49:59.696Z,1018.3
2022-08-11T08:51:04.871Z,1018.3
2022-08-11T08:52:41.038Z,1018.3
2022-08-11T08:53:56.097Z,1018.3
2022-08-11T08:55:01.410Z,1018.3
2022-08-11T08:56:04.356Z,1018.3
2022-08-11T08:57:06.496Z,1018.2
2022-08-11T08:58:09.083Z,1018.2
2022-08-11T08:59:12.007Z,1018.2
2022-08-11T09:00:23.521Z,1018.2
2022-08-11T09:01:27.448Z,1018.2
2022-08-11T09:02:44.161Z,1018.2
2022-08-11T09:04:11.729Z,1018.2
2022-08-11T09:05:23.435Z,1018.2
2022-08-11T09:06:29.066Z,1018.1
2022-08-11T09:07:40.843Z,1018.2
2022-08-11T09:08:45.986Z,1018.2
2022-08-11T09:09:56.210Z,1018.1
2022-08-11T09:10:58.857Z,1018.1
2022-08-11T09:12:01.924Z,1018.1
2022-08-11T09:13:04.908Z,1018.2
2022-08-11T09:14:15.164Z,1018.1
2022-08-11T09:15:20.358Z,1018.1
2022-08-11T09:16:23.286Z,1018.1
2022-08-11T09:17:25.968Z,1018.1
2022-08-11T09:18:34.069Z,1018.1
2022-08-11T09:19:36.970Z,1018.1
2022-08-11T09:20:40.105Z,1018.1
2022-08-11T09:21:49.933Z,1018.1
2022-08-11T09:25:28.120Z,1018
2022-08-11T09:26:31.342Z,1018
2022-08-11T09:27:34.692Z,1018
2022-08-11T09:28:37.942Z,1018
2022-08-11T09:29:40.721Z,1018
2022-08-11T09:30:43.910Z,1018
2022-08-11T09:31:46.491Z,1018
2022-08-11T09:32:48.589Z,1018
2022-08-11T09:33:51.434Z,1018
2022-08-11T09:34:55.019Z,1018
2022-08-11T09:35:57.989Z,1018
2022-08-11T09:37:00.112Z,1018
2022-08-11T09:38:03.818Z,1017.9
2022-08-11T09:39:06.209Z,1017.9
2022-08-11T09:40:09.665Z,1017.9
2022-08-11T09:41:15.063Z,1017.8
2022-08-11T09:42:24.277Z,1017.9
2022-08-11T09:43:27.046Z,1017.8
2022-08-11T09:44:30.823Z,1017.8
2022-08-11T09:45:40.764Z,1017.8
2022-08-11T09:46:43.404Z,1017.8
2022-08-11T09:47:46.314Z,1017.8
2022-08-11T09:48:49.752Z,1017.8
2022-08-11T09:49:52.407Z,1017.8
2022-08-11T09:50:55.310Z,1017.8
2022-08-11T09:52:05.792Z,1017.8
2022-08-11T09:53:41.531Z,1017.8
2022-08-11T09:55:06.522Z,1017.8
2022-08-11T09:56:09.452Z,1017.7
2022-08-11T09:57:12.413Z,1017.7
2022-08-11T09:58:43.610Z,1017.7
2022-08-11T09:59:47.042Z,1017.7
2022-08-11T10:00:53.614Z,1017.7
2022-08-11T10:01:56.111Z,1017.7
2022-08-11T10:02:59.303Z,1017.7
2022-08-11T10:04:01.942Z,1017.7
2022-08-11T10:05:04.840Z,1017.7
2022-08-11T10:06:08.802Z,1017.7
2022-08-11T10:07:12.648Z,1017.7
2022-08-11T10:08:15.273Z,1017.7
2022-08-11T10:09:18.533Z,1017.7
2022-08-11T10:10:21.105Z,1017.6
2022-08-11T10:11:23.845Z,1017.6
2022-08-11T10:12:26.424Z,1017.7
2022-08-11T10:14:35.097Z,1017.6
2022-08-11T10:16:16.455Z,1017.6
2022-08-11T10:17:19.929Z,1017.5
2022-08-11T10:18:22.577Z,1017.5
2022-08-11T10:19:25.566Z,1017.5
2022-08-11T10:20:28.188Z,1017.5
2022-08-11T10:21:31.410Z,1017.5
2022-08-11T10:22:33.768Z,1017.5
2022-08-11T10:26:21.978Z,1017.5
2022-08-11T10:30:04.306Z,1017.5
2022-08-11T10:31:13.692Z,1017.5
2022-08-11T10:32:19.523Z,1017.5
2022-08-11T10:34:00.593Z,1017.5
2022-08-11T10:35:04.818Z,1017.5
2022-08-11T10:36:17.078Z,1017.5
2022-08-11T10:37:20.215Z,1017.4
2022-08-11T10:38:23.125Z,1017.4
2022-08-11T10:39:26.728Z,1017.4
2022-08-11T10:40:29.652Z,1017.4
2022-08-11T10:41:32.840Z,1017.3
2022-08-11T10:42:58.386Z,1017.3
2022-08-11T10:44:04.593Z,1017.3
2022-08-11T10:45:07.487Z,1017.3
2022-08-11T10:46:10.949Z,1017.3
2022-08-11T10:47:13.733Z,1017.3
2022-08-11T10:48:15.978Z,1017.3
2022-08-11T10:49:18.603Z,1017.3
2022-08-11T10:50:20.841Z,1017.3
2022-08-11T10:51:53.847Z,1017.3
2022-08-11T10:53:01.034Z,1017.3
2022-08-11T10:54:03.677Z,1017.3
2022-08-11T10:55:07.100Z,1017.3
2022-08-11T10:56:09.510Z,1017.3
2022-08-11T10:57:12.716Z,1017.3
2022-08-11T10:58:15.414Z,1017.3
2022-08-11T10:59:18.328Z,1017.2
2022-08-11T11:00:21.580Z,1017.2
2022-08-11T11:01:24.678Z,1017.2
2022-08-11T11:02:27.665Z,1017.2
2022-08-11T11:03:30.086Z,1017.2
2022-08-11T11:04:34.303Z,1017.2
2022-08-11T11:06:27.960Z,1017.2
2022-08-11T11:07:33.417Z,1017.1
2022-08-11T11:08:35.683Z,1017.1
2022-08-11T11:09:39.197Z,1017.1
2022-08-11T11:10:42.056Z,1017.1
2022-08-11T11:11:44.925Z,1017
2022-08-11T11:12:47.560Z,1017
2022-08-11T11:13:57.308Z,1017
2022-08-11T11:15:08.511Z,1017
2022-08-11T11:16:20.449Z,1017
2022-08-11T11:17:23.644Z,1017
2022-08-11T11:18:26.550Z,1017
2022-08-11T11:19:29.530Z,1017
2022-08-11T11:20:40.728Z,1017
2022-08-11T11:21:50.478Z,1017
2022-08-11T11:22:53.389Z,1017
2022-08-11T11:23:56.645Z,1016.9
2022-08-11T11:25:02.484Z,1016.9
2022-08-11T11:26:04.546Z,1016.9
2022-08-11T11:27:07.393Z,1016.9
2022-08-11T11:28:09.755Z,1016.9
2022-08-11T11:29:12.398Z,1016.9
2022-08-11T11:30:15.477Z,1016.9
2022-08-11T11:31:18.114Z,1016.8
2022-08-11T11:32:21.287Z,1016.8
2022-08-11T11:33:23.919Z,1016.8
2022-08-11T11:34:26.875Z,1016.8
2022-08-11T11:35:29.225Z,1016.8
2022-08-11T11:36:32.229Z,1016.8
2022-08-11T11:37:34.678Z,1016.8
2022-08-11T11:38:37.867Z,1016.8
2022-08-11T11:39:40.501Z,1016.8
2022-08-11T11:40:43.625Z,1016.8
2022-08-11T11:41:46.199Z,1016.8
2022-08-11T11:42:49.766Z,1016.8
2022-08-11T11:43:53.260Z,1016.8
2022-08-11T11:44:58.553Z,1016.7
2022-08-11T11:46:03.717Z,1016.8
2022-08-11T11:47:07.338Z,1016.7
2022-08-11T11:48:09.402Z,1016.7
2022-08-11T11:49:17.607Z,1016.7
2022-08-11T11:50:19.907Z,1016.8
2022-08-11T11:51:23.042Z,1016.8
2022-08-11T11:52:26.318Z,1016.7
2022-08-11T11:53:29.402Z,1016.8
2022-08-11T11:54:31.803Z,1016.8
2022-08-11T11:55:34.350Z,1016.7
2022-08-11T11:56:37.434Z,1016.7
2022-08-11T11:57:40.251Z,1016.7
2022-08-11T11:59:04.054Z,1016.7
2022-08-11T12:00:06.135Z,1016.7
2022-08-11T12:01:08.487Z,1016.7
2022-08-11T12:02:12.666Z,1016.7
2022-08-11T12:03:16.339Z,1016.7
2022-08-11T12:04:19.902Z,1016.7
2022-08-11T12:05:23.066Z,1016.7
2022-08-11T12:06:27.920Z,1016.7
2022-08-11T12:07:30.323Z,1016.7
2022-08-11T12:08:32.120Z,1016.6
2022-08-11T12:09:34.755Z,1016.6
2022-08-11T12:10:37.377Z,1016.6
2022-08-11T12:11:39.882Z,1016.6
2022-08-11T12:12:45.214Z,1016.6
2022-08-11T12:13:47.222Z,1016.6
2022-08-11T12:14:49.380Z,1016.6
2022-08-11T12:16:36.328Z,1016.6
2022-08-11T12:17:39.280Z,1016.6
2022-08-11T12:18:43.336Z,1016.6
2022-08-11T12:19:48.863Z,1016.5
2022-08-11T12:20:57.964Z,1016.6
2022-08-11T12:22:01.877Z,1016.6
2022-08-11T12:23:04.725Z,1016.6
2022-08-11T12:24:07.301Z,1016.5
2022-08-11T12:25:10.012Z,1016.5
2022-08-11T12:26:28.915Z,1016.6
2022-08-11T12:27:31.584Z,1016.6
2022-08-11T12:28:40.872Z,1016.5
2022-08-11T12:29:44.520Z,1016.5
2022-08-11T12:30:54.403Z,1016.5
2022-08-11T12:31:57.043Z,1016.5
2022-08-11T12:33:00.230Z,1016.6
2022-08-11T12:34:03.130Z,1016.6
2022-08-11T12:35:06.126Z,1016.5
2022-08-11T12:36:09.028Z,1016.5
2022-08-11T12:37:13.931Z,1016.5
2022-08-11T12:38:29.611Z,1016.5
2022-08-11T12:40:50.207Z,1016.5
2022-08-11T12:42:20.497Z,1016.5
2022-08-11T12:43:39.736Z,1016.5
2022-08-11T12:44:42.594Z,1016.4
2022-08-11T12:45:44.725Z,1016.4
2022-08-11T12:46:47.923Z,1016.4
2022-08-11T12:49:01.849Z,1016.4
2022-08-11T12:50:23.749Z,1016.4
2022-08-11T12:51:26.977Z,1016.4
2022-08-11T12:52:29.826Z,1016.4
2022-08-11T12:53:32.570Z,1016.4
2022-08-11T12:54:34.935Z,1016.3
2022-08-11T12:55:38.127Z,1016.3
2022-08-11T12:56:39.988Z,1016.3
2022-08-11T12:57:43.393Z,1016.3
2022-08-11T12:58:46.931Z,1016.3
2022-08-11T12:59:55.575Z,1016.3
2022-08-11T13:00:58.854Z,1016.3
2022-08-11T13:02:01.329Z,1016.2
2022-08-11T13:03:04.526Z,1016.3
2022-08-11T13:04:07.150Z,1016.2
2022-08-11T13:05:10.102Z,1016.2
2022-08-11T13:06:17.237Z,1016.1
2022-08-11T13:07:22.249Z,1016.1
2022-08-11T13:08:25.419Z,1016.2
2022-08-11T13:09:28.290Z,1016.2
2022-08-11T13:10:30.645Z,1016.2
2022-08-11T13:11:57.582Z,1016.2
2022-08-11T13:13:00.581Z,1016.2
2022-08-11T13:14:03.772Z,1016.2
2022-08-11T13:15:06.355Z,1016.1
2022-08-11T13:16:09.268Z,1016.1
2022-08-11T13:17:14.188Z,1016.1
2022-08-11T13:18:17.317Z,1016.1
2022-08-11T13:19:19.740Z,1016
2022-08-11T13:20:22.374Z,1016
2022-08-11T13:21:24.816Z,1016
2022-08-11T13:22:28.275Z,1016
2022-08-11T13:23:35.803Z,1016
2022-08-11T13:24:38.974Z,1016
2022-08-11T13:25:41.906Z,1016
2022-08-11T13:26:50.687Z,1016
2022-08-11T13:28:55.529Z,1016
2022-08-11T13:30:00.191Z,1016
2022-08-11T13:31:03.288Z,1016
2022-08-11T13:32:06.268Z,1016
2022-08-11T13:33:09.175Z,1015.9
2022-08-11T13:34:12.092Z,1015.9
2022-08-11T13:35:15.636Z,1015.9
2022-08-11T13:36:18.487Z,1015.9
2022-08-11T13:38:27.789Z,1015.9
2022-08-11T13:39:33.147Z,1015.8
2022-08-11T13:40:56.311Z,1015.8
2022-08-11T13:41:59.796Z,1015.8
2022-08-11T13:43:02.112Z,1015.8
2022-08-11T13:44:05.057Z,1015.8
2022-08-11T13:45:07.765Z,1015.8
2022-08-11T13:46:10.545Z,1015.8
2022-08-11T13:47:12.689Z,1015.8
2022-08-11T13:48:15.034Z,1015.8
2022-08-11T13:49:18.220Z,1015.8
2022-08-11T13:50:21.167Z,1015.8
2022-08-11T13:51:35.151Z,1015.8
2022-08-11T13:52:37.926Z,1015.8
2022-08-11T13:53:40.786Z,1015.7
2022-08-11T13:54:43.215Z,1015.7
2022-08-11T13:55:52.857Z,1015.7
2022-08-11T13:56:56.155Z,1015.6
2022-08-11T13:58:39.830Z,1015.7
2022-08-11T13:59:58.387Z,1015.6
2022-08-11T14:02:04.279Z,1015.7
2022-08-11T14:04:32.476Z,1015.6
2022-08-11T14:05:34.847Z,1015.6
2022-08-11T14:06:37.148Z,1015.5